| Date | Time | Temp. (oF) | Dew Point (oF) | Rel. Hum. (%) | Press. (in.) | Wind Dir. | Wind Speed (mph) | Hourly Rainfall (in.) |
|
|---|---|---|---|---|---|---|---|---|---|
| 1 | 01/25 | 00:00 | 15 | 7 | 73 | 30.36 | WSW | 6 | 0.00 |
| 2 | 01/24 | 23:00 | 17 | 8 | 68 | 30.35 | WSW | 2 | 0.00 |
| 3 | 01/24 | 22:00 | 18 | 8 | 65 | 30.35 | WNW | 2 | 0.00 |
| 4 | 01/24 | 21:00 | 20 | 9 | 62 | 30.34 | WNW | 5 | 0.00 |
| 5 | 01/24 | 20:00 | 22 | 9 | 57 | 30.34 | WNW | 7 | 0.00 |
| 6 | 01/24 | 19:00 | 22 | 6 | 51 | 30.33 | SSW | 3 | 0.00 |
| 7 | 01/24 | 18:00 | 24 | 6 | 46 | 30.32 | WNW | 4 | 0.00 |
| 8 | 01/24 | 17:00 | 25 | 4 | 41 | 30.30 | WNW | 10 | 0.00 |
| 9 | 01/24 | 16:00 | 26 | 3 | 37 | 30.28 | WNW | 11 | 0.00 |
| 10 | 01/24 | 15:00 | 27 | 2 | 34 | 30.26 | WNW | 10 | 0.00 |
| 11 | 01/24 | 14:00 | 26 | 1 | 35 | 30.25 | NW | 12 | 0.00 |
| 12 | 01/24 | 13:00 | 24 | 2 | 39 | 30.28 | W | 19 | 0.00 |
| 13 | 01/24 | 12:00 | 21 | 3 | 46 | 30.28 | NW | 12 | 0.00 |
| 14 | 01/24 | 11:00 | 18 | 2 | 51 | 30.29 | WNW | 9 | 0.00 |
| 15 | 01/24 | 10:00 | 15 | 2 | 56 | 30.28 | NW | 10 | 0.00 |
| 16 | 01/24 | 09:00 | 12 | 1 | 62 | 30.26 | NW | 17 | 0.00 |
| 17 | 01/24 | 08:00 | 9 | 0 | 64 | 30.25 | W | 11 | 0.00 |
| 18 | 01/24 | 07:00 | 7 | -1 | 66 | 30.22 | WNW | 4 | 0.00 |
| 19 | 01/24 | 06:00 | 7 | -1 | 66 | 30.18 | NW | 7 | 0.00 |
| 20 | 01/24 | 05:00 | 7 | -1 | 67 | 30.15 | NNW | 10 | 0.00 |
| 21 | 01/24 | 04:00 | 7 | -1 | 68 | 30.11 | WNW | 4 | 0.00 |
| 22 | 01/24 | 03:00 | 8 | -1 | 63 | 30.08 | NW | 12 | 0.00 |
| 23 | 01/24 | 02:00 | 9 | -1 | 63 | 30.05 | NW | 13 | 0.00 |
| 24 | 01/24 | 01:00 | 9 | 0 | 68 | 30.02 | NW | 12 | 0.00 |